Map

Track Data

SID SEASON NUMBER BASIN SUBBASIN NAME ISO_TIME NATURE LAT LON WMO_WIND WMO_PRES WMO_AGENCY TRACK_TYPE DIST2LAND LANDFALL IFLAG USA_AGENCY USA_ATCF_ID USA_LAT USA_LON USA_RECORD USA_STATUS USA_WIND USA_PRES USA_SSHS USA_R34_NE USA_R34_SE USA_R34_SW USA_R34_NW USA_R50_NE USA_R50_SE USA_R50_SW USA_R50_NW USA_R64_NE USA_R64_SE USA_R64_SW USA_R64_NW USA_POCI USA_ROCI USA_RMW USA_EYE TOKYO_LAT TOKYO_LON TOKYO_GRADE TOKYO_WIND TOKYO_PRES TOKYO_R50_DIR TOKYO_R50_LONG TOKYO_R50_SHORT TOKYO_R30_DIR TOKYO_R30_LONG TOKYO_R30_SHORT TOKYO_LAND CMA_LAT CMA_LON CMA_CAT CMA_WIND CMA_PRES HKO_LAT HKO_LON HKO_CAT HKO_WIND HKO_PRES NEWDELHI_LAT NEWDELHI_LON NEWDELHI_GRADE NEWDELHI_WIND NEWDELHI_PRES NEWDELHI_CI NEWDELHI_DP NEWDELHI_POCI REUNION_LAT REUNION_LON REUNION_TYPE REUNION_WIND REUNION_PRES REUNION_TNUM REUNION_CI REUNION_RMW REUNION_R34_NE REUNION_R34_SE REUNION_R34_SW REUNION_R34_NW REUNION_R50_NE REUNION_R50_SE REUNION_R50_SW REUNION_R50_NW REUNION_R64_NE REUNION_R64_SE REUNION_R64_SW REUNION_R64_NW BOM_LAT BOM_LON BOM_TYPE BOM_WIND BOM_PRES BOM_TNUM BOM_CI BOM_RMW BOM_R34_NE BOM_R34_SE BOM_R34_SW BOM_R34_NW BOM_R50_NE BOM_R50_SE BOM_R50_SW BOM_R50_NW BOM_R64_NE BOM_R64_SE BOM_R64_SW BOM_R64_NW BOM_ROCI BOM_POCI BOM_EYE BOM_POS_METHOD BOM_PRES_METHOD NADI_LAT NADI_LON NADI_CAT NADI_WIND NADI_PRES WELLINGTON_LAT WELLINGTON_LON WELLINGTON_WIND WELLINGTON_PRES DS824_LAT DS824_LON DS824_STAGE DS824_WIND DS824_PRES TD9636_LAT TD9636_LON TD9636_STAGE TD9636_WIND TD9636_PRES TD9635_LAT TD9635_LON TD9635_WIND TD9635_PRES TD9635_ROCI NEUMANN_LAT NEUMANN_LON NEUMANN_CLASS NEUMANN_WIND NEUMANN_PRES MLC_LAT MLC_LON MLC_CLASS MLC_WIND MLC_PRES USA_GUST BOM_GUST BOM_GUST_PER REUNION_GUST REUNION_GUST_PER USA_SEAHGT USA_SEARAD_NE USA_SEARAD_SE USA_SEARAD_SW USA_SEARAD_NW STORM_SPEED STORM_DIR
1937210N27274 1937 26 NA GM NOT_NAMED 1937-07-29 00:00:00 TS 26.5000 -85.7000 25 hurdat_atl main 317 263 O_____________ hurdat_atl AL011937 26.5000 -85.7000 TD 25 -1 11 60
1937210N27274 1937 26 NA GM NOT_NAMED 1937-07-29 03:00:00 TS 26.7604 -85.1855 main 258 203 P_____________ AL011937 26.7604 -85.1855 TD 27 -1 10 61
1937210N27274 1937 26 NA GM NOT_NAMED 1937-07-29 06:00:00 TS 27.0000 -84.7000 30 hurdat_atl main 203 158 O_____________ hurdat_atl AL011937 27.0000 -84.7000 TD 30 -1 9 61
1937210N27274 1937 26 NA GM NOT_NAMED 1937-07-29 09:00:00 TS 27.2074 -84.2698 main 158 113 P_____________ AL011937 27.2074 -84.2698 TD 35 0 8 61
1937210N27274 1937 26 NA GM NOT_NAMED 1937-07-29 12:00:00 TS 27.4000 -83.9000 40 hurdat_atl main 113 76 O_____________ hurdat_atl AL011937 27.4000 -83.9000 TS 40 0 7 57
1937210N27274 1937 26 NA GM NOT_NAMED 1937-07-29 15:00:00 TS 27.5952 -83.5992 main 76 40 P_____________ AL011937 27.5952 -83.5992 TS 47 0 7 53
1937210N27274 1937 26 NA GM NOT_NAMED 1937-07-29 18:00:00 TS 27.8000 -83.3000 55 hurdat_atl main 40 9 O_____________ hurdat_atl AL011937 27.8000 -83.3000 TS 55 0 7 54
1937210N27274 1937 26 NA GM NOT_NAMED 1937-07-29 21:00:00 TS 28.0140 -82.9376 main 9 0 P_____________ AL011937 28.0140 -82.9376 TS 55 0 8 56
1937210N27274 1937 26 NA GM NOT_NAMED 1937-07-29 22:00:00 TS 28.1000 -82.8000 55 hurdat_atl main 0 0 O_____________ hurdat_atl AL011937 28.1000 -82.8000 L TS 55 0 10 53
1937210N27274 1937 26 NA NA NOT_NAMED 1937-07-30 00:00:00 TS 28.3000 -82.5000 45 hurdat_atl main 0 0 O_____________ hurdat_atl AL011937 28.3000 -82.5000 TS 45 0 12 51
1937210N27274 1937 26 NA NA NOT_NAMED 1937-07-30 03:00:00 TS 28.7152 -81.9287 main 0 0 P_____________ AL011937 28.7152 -81.9287 TS 42 0 14 49
1937210N27274 1937 26 NA NA NOT_NAMED 1937-07-30 06:00:00 TS 29.2000 -81.3000 40 hurdat_atl main 0 0 O_____________ hurdat_atl AL011937 29.2000 -81.3000 TS 40 0 14 48
1937210N27274 1937 26 NA NA NOT_NAMED 1937-07-30 09:00:00 TS 29.6423 -80.7344 main 44 44 P_____________ AL011937 29.6423 -80.7344 TS 37 0 13 47
1937210N27274 1937 26 NA NA NOT_NAMED 1937-07-30 12:00:00 TS 30.1000 -80.2000 35 hurdat_atl main 111 111 O_____________ hurdat_atl AL011937 30.1000 -80.2000 TS 35 0 13 44
1937210N27274 1937 26 NA NA NOT_NAMED 1937-07-30 15:00:00 TS 30.5923 -79.6846 main 162 162 P_____________ AL011937 30.5923 -79.6846 TS 35 0 13 41
1937210N27274 1937 26 NA NA NOT_NAMED 1937-07-30 18:00:00 TS 31.1000 -79.2000 35 hurdat_atl main 183 158 O_____________ hurdat_atl AL011937 31.1000 -79.2000 TS 35 0 13 39
1937210N27274 1937 26 NA NA NOT_NAMED 1937-07-30 21:00:00 TS 31.5998 -78.7419 main 165 143 P_____________ AL011937 31.5998 -78.7419 TS 37 0 13 37
1937210N27274 1937 26 NA NA NOT_NAMED 1937-07-31 00:00:00 TS 32.1000 -78.3000 40 hurdat_atl main 143 135 O_____________ hurdat_atl AL011937 32.1000 -78.3000 TS 40 0 13 37
1937210N27274 1937 26 NA NA NOT_NAMED 1937-07-31 03:00:00 TS 32.5923 -77.8494 main 146 105 P_____________ AL011937 32.5923 -77.8494 TS 45 0 13 37
1937210N27274 1937 26 NA NA NOT_NAMED 1937-07-31 06:00:00 TS 33.1000 -77.4000 50 hurdat_atl main 105 89 O_____________ hurdat_atl AL011937 33.1000 -77.4000 TS 50 0 12 34
1937210N27274 1937 26 NA NA NOT_NAMED 1937-07-31 09:00:00 TS 33.5885 -77.0360 main 98 55 P_____________ AL011937 33.5885 -77.0360 TS 52 0 13 34
1937210N27274 1937 26 NA NA NOT_NAMED 1937-07-31 12:00:00 TS 34.2000 -76.5000 55 997 hurdat_atl main 55 35 O_____________ hurdat_atl AL011937 34.2000 -76.5000 TS 55 997 0 19 39
1937210N27274 1937 26 NA NA NOT_NAMED 1937-07-31 15:00:00 TS 35.0396 -75.5918 main 63 49 P_____________ AL011937 35.0396 -75.5918 TS 57 996 0 25 44
1937210N27274 1937 26 NA NA NOT_NAMED 1937-07-31 18:00:00 TS 36.0000 -74.4000 60 996 hurdat_atl main 101 101 O_____________ hurdat_atl AL011937 36.0000 -74.4000 TS 60 996 0 28 47
1937210N27274 1937 26 NA NA NOT_NAMED 1937-07-31 21:00:00 TS 36.9586 -73.0232 main 234 234 P_____________ AL011937 36.9586 -73.0232 TS 60 0 29 50
1937210N27274 1937 26 NA NA NOT_NAMED 1937-08-01 00:00:00 ET 37.9000 -71.6000 60 hurdat_atl main 293 293 O_____________ hurdat_atl AL011937 37.9000 -71.6000 EX 60 -4 28 49
1937210N27274 1937 26 NA NA NOT_NAMED 1937-08-01 03:00:00 ET 38.7777 -70.3662 main 290 240 P_____________ AL011937 38.7777 -70.3662 EX 57 -4 25 48
1937210N27274 1937 26 NA NA NOT_NAMED 1937-08-01 06:00:00 ET 39.6000 -69.2000 55 hurdat_atl main 243 219 O_____________ hurdat_atl AL011937 39.6000 -69.2000 EX 55 -4 24 49
1937210N27274 1937 26 NA NA NOT_NAMED 1937-08-01 09:00:00 ET 40.3721 -67.9680 main 221 221 P_____________ AL011937 40.3721 -67.9680 EX 52 -4 24 51
1937210N27274 1937 26 NA NA NOT_NAMED 1937-08-01 12:00:00 ET 41.1000 -66.8000 50 hurdat_atl main 274 189 O_____________ hurdat_atl AL011937 41.1000 -66.8000 EX 50 -4 23 50
1937210N27274 1937 26 NA NA NOT_NAMED 1937-08-01 15:00:00 ET 41.8153 -65.6580 main 189 118 P_____________ AL011937 41.8153 -65.6580 EX 50 -4 20 47
1937210N27274 1937 26 NA NA NOT_NAMED 1937-08-01 18:00:00 ET 42.5000 -64.8000 50 hurdat_atl main 118 82 O_____________ hurdat_atl AL011937 42.5000 -64.8000 EX 50 -4 16 35
1937210N27274 1937 26 NA NA NOT_NAMED 1937-08-01 21:00:00 ET 43.1485 -64.3824 main 82 36 P_____________ AL011937 43.1485 -64.3824 EX 47 -4 14 16
1937210N27274 1937 26 NA NA NOT_NAMED 1937-08-02 00:00:00 ET 43.8000 -64.3000 45 hurdat_atl main 36 0 O_____________ hurdat_atl AL011937 43.8000 -64.3000 EX 45 -4 14 2
1937210N27274 1937 26 NA NA NOT_NAMED 1937-08-02 03:00:00 ET 44.4998 -64.3097 main 7 0 P_____________ AL011937 44.4998 -64.3097 EX 42 -4 14 354
1937210N27274 1937 26 NA NA NOT_NAMED 1937-08-02 06:00:00 ET 45.2000 -64.5000 40 hurdat_atl main 0 0 O_____________ hurdat_atl AL011937 45.2000 -64.5000 EX 40 -4 14 346
1937210N27274 1937 26 NA NA NOT_NAMED 1937-08-02 09:00:00 ET 45.8726 -64.8118 main 0 0 P_____________ AL011937 45.8726 -64.8118 EX 37 -4 14 339
1937210N27274 1937 26 NA NA NOT_NAMED 1937-08-02 12:00:00 ET 46.5000 -65.2000 35 hurdat_atl main 0 0 O_____________ hurdat_atl AL011937 46.5000 -65.2000 EX 35 -4 13 337
1937210N27274 1937 26 NA NA NOT_NAMED 1937-08-02 15:00:00 ET 47.0675 -65.5620 main 0 0 P_____________ AL011937 47.0675 -65.5620 EX 32 -4 12 337
1937210N27274 1937 26 NA NA NOT_NAMED 1937-08-02 18:00:00 ET 47.6000 -65.9000 30 hurdat_atl main 0 O_____________ hurdat_atl AL011937 47.6000 -65.9000 EX 30 -4 12 337

About IBTrACS Database

This database is a web-friendly format of International Best Track Archive for Climate Stewardship (IBTrACS), a global best track data archive curated by NOAA dating back to 1842.

Updated: 2021-10-08